sensor_id;sensor_type;location;lat;lon;timestamp;P1;durP1;ratioP1;P2;durP2;ratioP2
11111;SDS011;5609;49.466;8.468;2024-02-26T00:01:01;1.30;;;1.20;;
11111;SDS011;5609;49.466;8.468;2024-02-26T00:03:28;1.63;;;1.40;;
11111;SDS011;5609;49.466;8.468;2024-02-26T00:05:56;1.40;;;1.30;;
11111;SDS011;5609;49.466;8.468;2024-02-26T00:08:22;1.83;;;1.40;;
11111;SDS011;5609;49.466;8.468;2024-02-26T00:10:49;1.40;;;1.30;;
11111;SDS011;5609;49.466;8.468;2024-02-26T00:13:16;1.53;;;1.40;;
11111;SDS011;5609;49.466;8.468;2024-02-26T00:15:43;1.77;;;1.50;;
11111;SDS011;5609;49.466;8.468;2024-02-26T00:18:09;2.00;;;1.50;;
11111;SDS011;5609;49.466;8.468;2024-02-26T00:20:36;2.30;;;1.70;;
11111;SDS011;5609;49.466;8.468;2024-02-26T00:23:05;2.33;;;1.50;;
11111;SDS011;5609;49.466;8.468;2024-02-26T00:25:32;1.43;;;1.30;;
11111;SDS011;5609;49.466;8.468;2024-02-26T00:27:58;1.57;;;1.43;;
11111;SDS011;5609;49.466;8.468;2024-02-26T00:30:25;1.70;;;1.47;;
11111;SDS011;5609;49.466;8.468;2024-02-26T00:32:51;1.87;;;1.50;;
11111;SDS011;5609;49.466;8.468;2024-02-26T00:35:18;1.43;;;1.30;;
11111;SDS011;5609;49.466;8.468;2024-02-26T00:37:45;1.87;;;1.20;;
11111;SDS011;5609;49.466;8.468;2024-02-26T00:40:13;1.50;;;1.40;;
11111;SDS011;5609;49.466;8.468;2024-02-26T00:42:40;1.70;;;1.30;;
11111;SDS011;5609;49.466;8.468;2024-02-26T00:45:10;1.43;;;1.30;;
11111;SDS011;5609;49.466;8.468;2024-02-26T00:47:37;1.60;;;1.50;;
11111;SDS011;5609;49.466;8.468;2024-02-26T00:50:06;1.57;;;1.40;;
11111;SDS011;5609;49.466;8.468;2024-02-26T00:52:33;1.57;;;1.30;;
11111;SDS011;5609;49.466;8.468;2024-02-26T00:55:01;1.77;;;1.40;;
11111;SDS011;5609;49.466;8.468;2024-02-26T00:57:29;1.43;;;1.33;;
11111;SDS011;5609;49.466;8.468;2024-02-26T00:59:56;1.30;;;1.20;;
11111;SDS011;5609;49.466;8.468;2024-02-26T01:02:24;1.50;;;1.40;;
11111;SDS011;5609;49.466;8.468;2024-02-26T01:04:50;1.30;;;1.20;;
11111;SDS011;5609;49.466;8.468;2024-02-26T01:07:17;1.63;;;1.33;;
11111;SDS011;5609;49.466;8.468;2024-02-26T01:09:43;1.60;;;1.47;;
11111;SDS011;5609;49.466;8.468;2024-02-26T01:12:10;1.83;;;1.20;;
11111;SDS011;5609;49.466;8.468;2024-02-26T01:14:38;1.90;;;1.30;;
11111;SDS011;5609;49.466;8.468;2024-02-26T01:17:05;1.60;;;1.50;;
11111;SDS011;5609;49.466;8.468;2024-02-26T01:19:31;1.57;;;1.37;;
11111;SDS011;5609;49.466;8.468;2024-02-26T01:21:58;2.20;;;1.20;;
11111;SDS011;5609;49.466;8.468;2024-02-26T01:24:24;1.53;;;1.37;;
11111;SDS011;5609;49.466;8.468;2024-02-26T01:26:51;1.43;;;1.33;;
11111;SDS011;5609;49.466;8.468;2024-02-26T01:29:18;1.63;;;1.53;;
11111;SDS011;5609;49.466;8.468;2024-02-26T01:31:45;1.57;;;1.47;;
11111;SDS011;5609;49.466;8.468;2024-02-26T01:34:12;2.60;;;1.40;;
11111;SDS011;5609;49.466;8.468;2024-02-26T01:36:39;1.57;;;1.47;;
11111;SDS011;5609;49.466;8.468;2024-02-26T01:39:06;2.27;;;1.40;;
11111;SDS011;5609;49.466;8.468;2024-02-26T01:41:32;1.97;;;1.40;;
11111;SDS011;5609;49.466;8.468;2024-02-26T01:43:59;1.93;;;1.50;;
11111;SDS011;5609;49.466;8.468;2024-02-26T01:46:25;1.60;;;1.50;;
11111;SDS011;5609;49.466;8.468;2024-02-26T01:48:53;1.73;;;1.40;;
11111;SDS011;5609;49.466;8.468;2024-02-26T01:51:20;1.60;;;1.50;;
11111;SDS011;5609;49.466;8.468;2024-02-26T01:53:47;1.80;;;1.50;;
11111;SDS011;5609;49.466;8.468;2024-02-26T01:56:14;1.80;;;1.70;;
11111;SDS011;5609;49.466;8.468;2024-02-26T01:58:42;1.77;;;1.67;;
11111;SDS011;5609;49.466;8.468;2024-02-26T02:01:09;1.80;;;1.53;;
11111;SDS011;5609;49.466;8.468;2024-02-26T02:03:36;1.90;;;1.43;;
11111;SDS011;5609;49.466;8.468;2024-02-26T02:06:05;1.60;;;1.47;;
11111;SDS011;5609;49.466;8.468;2024-02-26T02:08:32;2.10;;;1.63;;
11111;SDS011;5609;49.466;8.468;2024-02-26T02:11:00;2.80;;;1.50;;
11111;SDS011;5609;49.466;8.468;2024-02-26T02:13:26;1.50;;;1.40;;
11111;SDS011;5609;49.466;8.468;2024-02-26T02:15:53;2.10;;;1.70;;
11111;SDS011;5609;49.466;8.468;2024-02-26T02:18:20;2.17;;;1.63;;
11111;SDS011;5609;49.466;8.468;2024-02-26T02:20:48;1.97;;;1.77;;
11111;SDS011;5609;49.466;8.468;2024-02-26T02:23:14;2.17;;;1.60;;
11111;SDS011;5609;49.466;8.468;2024-02-26T02:25:41;1.57;;;1.47;;
11111;SDS011;5609;49.466;8.468;2024-02-26T02:28:07;2.47;;;1.60;;
11111;SDS011;5609;49.466;8.468;2024-02-26T02:30:34;2.17;;;1.53;;
11111;SDS011;5609;49.466;8.468;2024-02-26T02:33:01;1.60;;;1.50;;
11111;SDS011;5609;49.466;8.468;2024-02-26T02:35:27;1.70;;;1.60;;
11111;SDS011;5609;49.466;8.468;2024-02-26T02:37:56;1.83;;;1.50;;
11111;SDS011;5609;49.466;8.468;2024-02-26T02:40:23;1.60;;;1.50;;
11111;SDS011;5609;49.466;8.468;2024-02-26T02:42:50;1.60;;;1.50;;
11111;SDS011;5609;49.466;8.468;2024-02-26T02:45:16;1.97;;;1.60;;
11111;SDS011;5609;49.466;8.468;2024-02-26T02:47:43;1.63;;;1.50;;
11111;SDS011;5609;49.466;8.468;2024-02-26T02:50:10;2.00;;;1.50;;
11111;SDS011;5609;49.466;8.468;2024-02-26T02:52:36;1.40;;;1.30;;
11111;SDS011;5609;49.466;8.468;2024-02-26T02:55:04;2.07;;;1.60;;
11111;SDS011;5609;49.466;8.468;2024-02-26T02:57:31;1.73;;;1.50;;
11111;SDS011;5609;49.466;8.468;2024-02-26T02:59:59;1.50;;;1.30;;
11111;SDS011;5609;49.466;8.468;2024-02-26T03:02:25;2.03;;;1.67;;
11111;SDS011;5609;49.466;8.468;2024-02-26T03:04:52;2.10;;;1.50;;
11111;SDS011;5609;49.466;8.468;2024-02-26T03:07:18;2.03;;;1.40;;
11111;SDS011;5609;49.466;8.468;2024-02-26T03:09:45;1.90;;;1.70;;
11111;SDS011;5609;49.466;8.468;2024-02-26T03:12:13;2.23;;;1.57;;
11111;SDS011;5609;49.466;8.468;2024-02-26T03:14:40;2.83;;;1.50;;
11111;SDS011;5609;49.466;8.468;2024-02-26T03:17:06;2.23;;;1.60;;
11111;SDS011;5609;49.466;8.468;2024-02-26T03:19:33;1.83;;;1.57;;
11111;SDS011;5609;49.466;8.468;2024-02-26T03:21:59;2.27;;;1.70;;
11111;SDS011;5609;49.466;8.468;2024-02-26T03:24:27;1.63;;;1.50;;
11111;SDS011;5609;49.466;8.468;2024-02-26T03:26:54;1.87;;;1.40;;
11111;SDS011;5609;49.466;8.468;2024-02-26T03:29:22;1.57;;;1.47;;
11111;SDS011;5609;49.466;8.468;2024-02-26T03:31:48;2.23;;;1.60;;
11111;SDS011;5609;49.466;8.468;2024-02-26T03:34:15;1.50;;;1.40;;
11111;SDS011;5609;49.466;8.468;2024-02-26T03:36:43;1.40;;;1.30;;
11111;SDS011;5609;49.466;8.468;2024-02-26T03:39:10;1.27;;;1.10;;
11111;SDS011;5609;49.466;8.468;2024-02-26T03:41:37;1.30;;;1.20;;
11111;SDS011;5609;49.466;8.468;2024-02-26T03:44:04;1.63;;;1.13;;
11111;SDS011;5609;49.466;8.468;2024-02-26T03:46:32;1.10;;;1.00;;
11111;SDS011;5609;49.466;8.468;2024-02-26T03:48:58;1.33;;;0.90;;
11111;SDS011;5609;49.466;8.468;2024-02-26T03:51:25;1.37;;;0.90;;
11111;SDS011;5609;49.466;8.468;2024-02-26T03:53:56;1.10;;;1.00;;
11111;SDS011;5609;49.466;8.468;2024-02-26T03:56:22;1.50;;;0.90;;
11111;SDS011;5609;49.466;8.468;2024-02-26T03:58:49;1.10;;;0.87;;
11111;SDS011;5609;49.466;8.468;2024-02-26T04:01:15;0.70;;;0.70;;
11111;SDS011;5609;49.466;8.468;2024-02-26T04:03:43;1.60;;;1.00;;
11111;SDS011;5609;49.466;8.468;2024-02-26T04:06:10;0.90;;;0.90;;
11111;SDS011;5609;49.466;8.468;2024-02-26T04:08:39;1.93;;;0.80;;
11111;SDS011;5609;49.466;8.468;2024-02-26T04:11:06;0.73;;;0.73;;
11111;SDS011;5609;49.466;8.468;2024-02-26T04:13:32;0.90;;;0.80;;
11111;SDS011;5609;49.466;8.468;2024-02-26T04:15:59;1.10;;;1.00;;
11111;SDS011;5609;49.466;8.468;2024-02-26T04:18:27;2.20;;;1.30;;
11111;SDS011;5609;49.466;8.468;2024-02-26T04:20:55;1.90;;;1.70;;
11111;SDS011;5609;49.466;8.468;2024-02-26T04:23:22;1.70;;;1.60;;
11111;SDS011;5609;49.466;8.468;2024-02-26T04:25:49;1.90;;;1.70;;
11111;SDS011;5609;49.466;8.468;2024-02-26T04:28:18;2.03;;;1.50;;
11111;SDS011;5609;49.466;8.468;2024-02-26T04:30:45;2.23;;;1.40;;
11111;SDS011;5609;49.466;8.468;2024-02-26T04:33:12;2.23;;;1.70;;
11111;SDS011;5609;49.466;8.468;2024-02-26T04:35:39;1.90;;;1.70;;
11111;SDS011;5609;49.466;8.468;2024-02-26T04:38:07;2.40;;;1.70;;
11111;SDS011;5609;49.466;8.468;2024-02-26T04:40:34;2.20;;;1.53;;
11111;SDS011;5609;49.466;8.468;2024-02-26T04:43:00;2.53;;;1.87;;
11111;SDS011;5609;49.466;8.468;2024-02-26T04:45:27;1.80;;;1.60;;
11111;SDS011;5609;49.466;8.468;2024-02-26T04:47:54;2.30;;;1.80;;
11111;SDS011;5609;49.466;8.468;2024-02-26T04:50:20;1.87;;;1.60;;
11111;SDS011;5609;49.466;8.468;2024-02-26T04:52:47;2.10;;;1.60;;
11111;SDS011;5609;49.466;8.468;2024-02-26T04:55:15;1.87;;;1.67;;
11111;SDS011;5609;49.466;8.468;2024-02-26T04:57:42;2.70;;;1.70;;
11111;SDS011;5609;49.466;8.468;2024-02-26T05:00:09;2.33;;;1.67;;
11111;SDS011;5609;49.466;8.468;2024-02-26T05:02:37;3.43;;;1.70;;
11111;SDS011;5609;49.466;8.468;2024-02-26T05:05:04;2.07;;;1.60;;
11111;SDS011;5609;49.466;8.468;2024-02-26T05:07:31;2.33;;;1.50;;
11111;SDS011;5609;49.466;8.468;2024-02-26T05:09:58;2.13;;;1.50;;
11111;SDS011;5609;49.466;8.468;2024-02-26T05:12:26;2.67;;;1.57;;
11111;SDS011;5609;49.466;8.468;2024-02-26T05:14:53;1.70;;;1.60;;
11111;SDS011;5609;49.466;8.468;2024-02-26T05:17:20;1.60;;;1.50;;
11111;SDS011;5609;49.466;8.468;2024-02-26T05:19:46;1.60;;;1.50;;
11111;SDS011;5609;49.466;8.468;2024-02-26T05:22:13;1.97;;;1.30;;
11111;SDS011;5609;49.466;8.468;2024-02-26T05:24:40;2.00;;;1.50;;
11111;SDS011;5609;49.466;8.468;2024-02-26T05:27:07;1.90;;;1.50;;
11111;SDS011;5609;49.466;8.468;2024-02-26T05:32:03;1.57;;;1.27;;
11111;SDS011;5609;49.466;8.468;2024-02-26T05:34:30;1.47;;;1.30;;
11111;SDS011;5609;49.466;8.468;2024-02-26T05:36:58;3.40;;;1.33;;
11111;SDS011;5609;49.466;8.468;2024-02-26T05:39:25;1.13;;;1.03;;
11111;SDS011;5609;49.466;8.468;2024-02-26T05:41:51;1.47;;;1.20;;
11111;SDS011;5609;49.466;8.468;2024-02-26T05:44:18;1.20;;;1.10;;
11111;SDS011;5609;49.466;8.468;2024-02-26T05:46:45;1.00;;;0.90;;
11111;SDS011;5609;49.466;8.468;2024-02-26T05:49:12;1.80;;;1.07;;
11111;SDS011;5609;49.466;8.468;2024-02-26T05:51:39;1.60;;;1.50;;
11111;SDS011;5609;49.466;8.468;2024-02-26T05:54:06;1.47;;;1.20;;
11111;SDS011;5609;49.466;8.468;2024-02-26T05:56:33;1.43;;;1.20;;
11111;SDS011;5609;49.466;8.468;2024-02-26T05:58:59;2.30;;;1.60;;
11111;SDS011;5609;49.466;8.468;2024-02-26T06:01:26;2.33;;;2.10;;
11111;SDS011;5609;49.466;8.468;2024-02-26T06:03:53;2.30;;;2.10;;
11111;SDS011;5609;49.466;8.468;2024-02-26T06:06:21;3.97;;;1.80;;
11111;SDS011;5609;49.466;8.468;2024-02-26T06:08:48;1.40;;;1.30;;
11111;SDS011;5609;49.466;8.468;2024-02-26T06:11:15;1.77;;;1.47;;
11111;SDS011;5609;49.466;8.468;2024-02-26T06:13:41;2.17;;;1.60;;
11111;SDS011;5609;49.466;8.468;2024-02-26T06:16:08;1.60;;;1.40;;
11111;SDS011;5609;49.466;8.468;2024-02-26T06:18:34;1.50;;;1.40;;
11111;SDS011;5609;49.466;8.468;2024-02-26T06:21:01;1.37;;;1.27;;
11111;SDS011;5609;49.466;8.468;2024-02-26T06:23:29;2.27;;;1.40;;
11111;SDS011;5609;49.466;8.468;2024-02-26T06:25:56;1.57;;;1.20;;
11111;SDS011;5609;49.466;8.468;2024-02-26T06:28:22;2.20;;;1.20;;
11111;SDS011;5609;49.466;8.468;2024-02-26T06:30:49;1.00;;;1.00;;
11111;SDS011;5609;49.466;8.468;2024-02-26T06:33:17;1.30;;;1.20;;
11111;SDS011;5609;49.466;8.468;2024-02-26T06:35:44;1.87;;;1.00;;
11111;SDS011;5609;49.466;8.468;2024-02-26T06:38:10;1.87;;;1.20;;
11111;SDS011;5609;49.466;8.468;2024-02-26T06:40:40;1.83;;;1.10;;
11111;SDS011;5609;49.466;8.468;2024-02-26T06:43:06;1.30;;;1.20;;
11111;SDS011;5609;49.466;8.468;2024-02-26T06:45:33;2.43;;;1.30;;
11111;SDS011;5609;49.466;8.468;2024-02-26T06:47:59;1.20;;;1.10;;
11111;SDS011;5609;49.466;8.468;2024-02-26T06:50:27;1.87;;;1.37;;
11111;SDS011;5609;49.466;8.468;2024-02-26T06:52:54;1.40;;;1.30;;
11111;SDS011;5609;49.466;8.468;2024-02-26T06:55:20;1.40;;;1.30;;
11111;SDS011;5609;49.466;8.468;2024-02-26T06:57:48;1.40;;;1.30;;
11111;SDS011;5609;49.466;8.468;2024-02-26T07:00:15;1.73;;;1.50;;
11111;SDS011;5609;49.466;8.468;2024-02-26T07:02:42;1.20;;;1.10;;
11111;SDS011;5609;49.466;8.468;2024-02-26T07:05:09;1.50;;;1.40;;
11111;SDS011;5609;49.466;8.468;2024-02-26T07:07:36;1.40;;;1.30;;
11111;SDS011;5609;49.466;8.468;2024-02-26T07:10:03;1.40;;;1.30;;
11111;SDS011;5609;49.466;8.468;2024-02-26T07:12:30;1.57;;;1.40;;
11111;SDS011;5609;49.466;8.468;2024-02-26T07:14:58;2.50;;;1.43;;
11111;SDS011;5609;49.466;8.468;2024-02-26T07:17:25;2.50;;;1.60;;
11111;SDS011;5609;49.466;8.468;2024-02-26T07:19:52;1.87;;;1.30;;
11111;SDS011;5609;49.466;8.468;2024-02-26T07:22:18;2.17;;;1.63;;
11111;SDS011;5609;49.466;8.468;2024-02-26T07:24:45;1.80;;;1.40;;
11111;SDS011;5609;49.466;8.468;2024-02-26T07:27:11;2.33;;;1.67;;
11111;SDS011;5609;49.466;8.468;2024-02-26T07:29:38;1.70;;;1.60;;
11111;SDS011;5609;49.466;8.468;2024-02-26T07:32:06;2.37;;;1.80;;
11111;SDS011;5609;49.466;8.468;2024-02-26T07:34:33;1.80;;;1.70;;
11111;SDS011;5609;49.466;8.468;2024-02-26T07:37:00;2.23;;;1.73;;
11111;SDS011;5609;49.466;8.468;2024-02-26T07:39:28;1.60;;;1.50;;
11111;SDS011;5609;49.466;8.468;2024-02-26T07:41:54;1.73;;;1.60;;
11111;SDS011;5609;49.466;8.468;2024-02-26T07:44:21;1.63;;;1.53;;
11111;SDS011;5609;49.466;8.468;2024-02-26T07:46:47;2.00;;;1.50;;
11111;SDS011;5609;49.466;8.468;2024-02-26T07:49:16;1.70;;;1.50;;
11111;SDS011;5609;49.466;8.468;2024-02-26T07:51:42;2.00;;;1.90;;
11111;SDS011;5609;49.466;8.468;2024-02-26T07:54:09;2.33;;;2.07;;
11111;SDS011;5609;49.466;8.468;2024-02-26T07:56:35;2.87;;;2.20;;
11111;SDS011;5609;49.466;8.468;2024-02-26T07:59:03;4.47;;;2.80;;
11111;SDS011;5609;49.466;8.468;2024-02-26T08:01:29;3.40;;;3.00;;
11111;SDS011;5609;49.466;8.468;2024-02-26T08:03:56;4.17;;;3.40;;
11111;SDS011;5609;49.466;8.468;2024-02-26T08:06:24;4.57;;;2.70;;
11111;SDS011;5609;49.466;8.468;2024-02-26T08:08:51;4.07;;;2.60;;
11111;SDS011;5609;49.466;8.468;2024-02-26T08:11:18;3.03;;;2.13;;
11111;SDS011;5609;49.466;8.468;2024-02-26T08:13:44;2.17;;;1.93;;
11111;SDS011;5609;49.466;8.468;2024-02-26T08:16:14;2.00;;;1.80;;
11111;SDS011;5609;49.466;8.468;2024-02-26T08:18:40;3.27;;;2.20;;
11111;SDS011;5609;49.466;8.468;2024-02-26T08:21:07;2.20;;;1.70;;
11111;SDS011;5609;49.466;8.468;2024-02-26T08:23:35;4.00;;;1.80;;
11111;SDS011;5609;49.466;8.468;2024-02-26T08:26:02;1.70;;;1.60;;
11111;SDS011;5609;49.466;8.468;2024-02-26T08:28:32;1.93;;;1.53;;
11111;SDS011;5609;49.466;8.468;2024-02-26T08:30:58;1.97;;;1.57;;
11111;SDS011;5609;49.466;8.468;2024-02-26T08:33:25;3.47;;;1.63;;
11111;SDS011;5609;49.466;8.468;2024-02-26T08:35:52;2.03;;;1.70;;
11111;SDS011;5609;49.466;8.468;2024-02-26T08:38:18;2.50;;;1.70;;
11111;SDS011;5609;49.466;8.468;2024-02-26T08:40:46;1.53;;;1.43;;
11111;SDS011;5609;49.466;8.468;2024-02-26T08:43:13;2.83;;;1.60;;
11111;SDS011;5609;49.466;8.468;2024-02-26T08:45:39;2.43;;;1.90;;
11111;SDS011;5609;49.466;8.468;2024-02-26T08:48:06;1.97;;;1.43;;
11111;SDS011;5609;49.466;8.468;2024-02-26T08:50:33;3.17;;;1.80;;
11111;SDS011;5609;49.466;8.468;2024-02-26T08:53:00;2.60;;;1.60;;
11111;SDS011;5609;49.466;8.468;2024-02-26T08:55:26;1.63;;;1.50;;
11111;SDS011;5609;49.466;8.468;2024-02-26T08:57:54;1.90;;;1.70;;
11111;SDS011;5609;49.466;8.468;2024-02-26T09:00:21;1.70;;;1.60;;
11111;SDS011;5609;49.466;8.468;2024-02-26T09:02:48;1.70;;;1.27;;
11111;SDS011;5609;49.466;8.468;2024-02-26T09:05:14;1.93;;;1.40;;
11111;SDS011;5609;49.466;8.468;2024-02-26T09:07:41;1.50;;;1.40;;
11111;SDS011;5609;49.466;8.468;2024-02-26T09:10:08;1.20;;;1.10;;
11111;SDS011;5609;49.466;8.468;2024-02-26T09:12:35;1.57;;;1.40;;
11111;SDS011;5609;49.466;8.468;2024-02-26T09:15:03;2.37;;;1.50;;
11111;SDS011;5609;49.466;8.468;2024-02-26T09:17:31;1.73;;;1.40;;
11111;SDS011;5609;49.466;8.468;2024-02-26T09:19:58;2.10;;;1.40;;
11111;SDS011;5609;49.466;8.468;2024-02-26T09:22:25;1.43;;;1.33;;
11111;SDS011;5609;49.466;8.468;2024-02-26T09:24:51;2.00;;;1.60;;
11111;SDS011;5609;49.466;8.468;2024-02-26T09:27:18;1.83;;;1.70;;
11111;SDS011;5609;49.466;8.468;2024-02-26T09:29:45;2.17;;;1.70;;
11111;SDS011;5609;49.466;8.468;2024-02-26T09:32:13;2.20;;;2.00;;
11111;SDS011;5609;49.466;8.468;2024-02-26T09:34:40;2.10;;;1.90;;
11111;SDS011;5609;49.466;8.468;2024-02-26T09:37:06;1.80;;;1.70;;
11111;SDS011;5609;49.466;8.468;2024-02-26T09:39:33;1.70;;;1.60;;
11111;SDS011;5609;49.466;8.468;2024-02-26T09:42:00;1.90;;;1.70;;
11111;SDS011;5609;49.466;8.468;2024-02-26T09:44:29;2.20;;;1.67;;
11111;SDS011;5609;49.466;8.468;2024-02-26T09:47:00;2.13;;;1.70;;
11111;SDS011;5609;49.466;8.468;2024-02-26T09:49:29;2.00;;;1.63;;
11111;SDS011;5609;49.466;8.468;2024-02-26T09:51:56;2.43;;;1.60;;
11111;SDS011;5609;49.466;8.468;2024-02-26T09:54:24;2.23;;;1.70;;
11111;SDS011;5609;49.466;8.468;2024-02-26T09:56:51;1.70;;;1.60;;
11111;SDS011;5609;49.466;8.468;2024-02-26T09:59:23;2.17;;;1.70;;
11111;SDS011;5609;49.466;8.468;2024-02-26T10:01:50;1.60;;;1.50;;
11111;SDS011;5609;49.466;8.468;2024-02-26T10:04:19;1.63;;;1.50;;
11111;SDS011;5609;49.466;8.468;2024-02-26T10:06:48;2.80;;;1.80;;
11111;SDS011;5609;49.466;8.468;2024-02-26T10:09:15;2.13;;;1.70;;
11111;SDS011;5609;49.466;8.468;2024-02-26T10:11:43;1.67;;;1.57;;
11111;SDS011;5609;49.466;8.468;2024-02-26T10:14:09;2.13;;;1.80;;
11111;SDS011;5609;49.466;8.468;2024-02-26T10:16:36;2.20;;;2.00;;
11111;SDS011;5609;49.466;8.468;2024-02-26T10:19:03;1.77;;;1.63;;
11111;SDS011;5609;49.466;8.468;2024-02-26T10:21:30;2.07;;;1.50;;
11111;SDS011;5609;49.466;8.468;2024-02-26T10:23:58;2.50;;;1.80;;
11111;SDS011;5609;49.466;8.468;2024-02-26T10:26:24;2.10;;;1.70;;
11111;SDS011;5609;49.466;8.468;2024-02-26T10:28:51;1.50;;;1.40;;
11111;SDS011;5609;49.466;8.468;2024-02-26T10:31:18;1.73;;;1.30;;
11111;SDS011;5609;49.466;8.468;2024-02-26T10:33:45;1.30;;;1.10;;
11111;SDS011;5609;49.466;8.468;2024-02-26T10:36:11;1.67;;;1.53;;
11111;SDS011;5609;49.466;8.468;2024-02-26T10:38:38;1.67;;;1.30;;
11111;SDS011;5609;49.466;8.468;2024-02-26T10:41:07;1.27;;;1.17;;
11111;SDS011;5609;49.466;8.468;2024-02-26T10:43:39;1.30;;;1.10;;
11111;SDS011;5609;49.466;8.468;2024-02-26T10:46:06;1.87;;;1.23;;
11111;SDS011;5609;49.466;8.468;2024-02-26T10:48:34;1.57;;;1.20;;
11111;SDS011;5609;49.466;8.468;2024-02-26T10:51:01;1.30;;;1.20;;
11111;SDS011;5609;49.466;8.468;2024-02-26T10:53:29;1.53;;;1.40;;
11111;SDS011;5609;49.466;8.468;2024-02-26T10:55:57;1.70;;;1.50;;
11111;SDS011;5609;49.466;8.468;2024-02-26T10:58:28;1.73;;;1.60;;
11111;SDS011;5609;49.466;8.468;2024-02-26T11:00:55;1.50;;;1.40;;
11111;SDS011;5609;49.466;8.468;2024-02-26T11:03:23;1.83;;;1.60;;
11111;SDS011;5609;49.466;8.468;2024-02-26T11:05:51;2.40;;;2.20;;
11111;SDS011;5609;49.466;8.468;2024-02-26T11:08:17;1.83;;;1.67;;
11111;SDS011;5609;49.466;8.468;2024-02-26T11:10:46;1.90;;;1.70;;
11111;SDS011;5609;49.466;8.468;2024-02-26T11:13:14;1.97;;;1.50;;
11111;SDS011;5609;49.466;8.468;2024-02-26T11:15:45;1.30;;;1.07;;
11111;SDS011;5609;49.466;8.468;2024-02-26T11:18:13;1.20;;;1.10;;
11111;SDS011;5609;49.466;8.468;2024-02-26T11:20:41;1.63;;;1.27;;
11111;SDS011;5609;49.466;8.468;2024-02-26T11:23:08;1.30;;;1.10;;
11111;SDS011;5609;49.466;8.468;2024-02-26T11:25:35;2.20;;;1.20;;
11111;SDS011;5609;49.466;8.468;2024-02-26T11:28:05;1.90;;;1.27;;
11111;SDS011;5609;49.466;8.468;2024-02-26T11:30:36;0.90;;;0.90;;
11111;SDS011;5609;49.466;8.468;2024-02-26T11:33:07;1.33;;;1.23;;
11111;SDS011;5609;49.466;8.468;2024-02-26T11:35:35;2.90;;;1.80;;
11111;SDS011;5609;49.466;8.468;2024-02-26T11:38:02;1.30;;;1.20;;
11111;SDS011;5609;49.466;8.468;2024-02-26T11:40:31;1.20;;;1.10;;
11111;SDS011;5609;49.466;8.468;2024-02-26T11:42:59;1.60;;;0.97;;
11111;SDS011;5609;49.466;8.468;2024-02-26T11:45:47;1.87;;;1.20;;
11111;SDS011;5609;49.466;8.468;2024-02-26T11:48:19;1.20;;;1.10;;
11111;SDS011;5609;49.466;8.468;2024-02-26T11:50:47;1.67;;;1.13;;
11111;SDS011;5609;49.466;8.468;2024-02-26T11:53:22;1.20;;;1.10;;
11111;SDS011;5609;49.466;8.468;2024-02-26T11:58:46;1.33;;;1.10;;
11111;SDS011;5609;49.466;8.468;2024-02-26T12:04:15;1.37;;;1.10;;
11111;SDS011;5609;49.466;8.468;2024-02-26T12:06:45;1.23;;;1.13;;
11111;SDS011;5609;49.466;8.468;2024-02-26T12:09:16;1.23;;;1.03;;
11111;SDS011;5609;49.466;8.468;2024-02-26T12:11:56;1.40;;;1.13;;
11111;SDS011;5609;49.466;8.468;2024-02-26T12:14:25;1.23;;;1.00;;
11111;SDS011;5609;49.466;8.468;2024-02-26T12:16:52;1.87;;;1.10;;
11111;SDS011;5609;49.466;8.468;2024-02-26T12:19:20;1.43;;;1.13;;
11111;SDS011;5609;49.466;8.468;2024-02-26T12:21:50;1.20;;;1.10;;
11111;SDS011;5609;49.466;8.468;2024-02-26T12:24:18;1.33;;;1.20;;
11111;SDS011;5609;49.466;8.468;2024-02-26T12:26:45;1.00;;;1.00;;
11111;SDS011;5609;49.466;8.468;2024-02-26T12:29:12;1.13;;;0.80;;
11111;SDS011;5609;49.466;8.468;2024-02-26T12:31:39;1.97;;;1.10;;
11111;SDS011;5609;49.466;8.468;2024-02-26T12:34:06;1.10;;;1.00;;
11111;SDS011;5609;49.466;8.468;2024-02-26T12:36:36;1.00;;;0.90;;
11111;SDS011;5609;49.466;8.468;2024-02-26T12:39:05;0.73;;;0.73;;
11111;SDS011;5609;49.466;8.468;2024-02-26T12:41:32;1.60;;;1.00;;
11111;SDS011;5609;49.466;8.468;2024-02-26T12:43:59;1.10;;;1.00;;
11111;SDS011;5609;49.466;8.468;2024-02-26T12:46:26;1.13;;;1.03;;
11111;SDS011;5609;49.466;8.468;2024-02-26T12:48:54;1.37;;;1.27;;
11111;SDS011;5609;49.466;8.468;2024-02-26T12:51:23;1.00;;;1.00;;
11111;SDS011;5609;49.466;8.468;2024-02-26T12:53:52;0.97;;;0.97;;
11111;SDS011;5609;49.466;8.468;2024-02-26T12:56:19;2.27;;;2.07;;
11111;SDS011;5609;49.466;8.468;2024-02-26T12:58:47;1.03;;;0.80;;
11111;SDS011;5609;49.466;8.468;2024-02-26T13:01:17;0.70;;;0.70;;
11111;SDS011;5609;49.466;8.468;2024-02-26T13:03:45;1.30;;;1.00;;
11111;SDS011;5609;49.466;8.468;2024-02-26T13:06:12;1.57;;;1.30;;
11111;SDS011;5609;49.466;8.468;2024-02-26T13:08:39;1.10;;;1.00;;
11111;SDS011;5609;49.466;8.468;2024-02-26T13:11:07;1.10;;;1.10;;
11111;SDS011;5609;49.466;8.468;2024-02-26T13:13:34;1.83;;;1.13;;
11111;SDS011;5609;49.466;8.468;2024-02-26T13:16:02;1.97;;;1.00;;
11111;SDS011;5609;49.466;8.468;2024-02-26T13:18:29;1.77;;;1.30;;
11111;SDS011;5609;49.466;8.468;2024-02-26T13:21:06;1.40;;;0.90;;
11111;SDS011;5609;49.466;8.468;2024-02-26T13:23:34;1.40;;;0.77;;
11111;SDS011;5609;49.466;8.468;2024-02-26T13:26:00;1.10;;;1.00;;
11111;SDS011;5609;49.466;8.468;2024-02-26T13:28:28;2.93;;;2.30;;
11111;SDS011;5609;49.466;8.468;2024-02-26T13:30:55;1.47;;;0.90;;
11111;SDS011;5609;49.466;8.468;2024-02-26T13:33:24;2.60;;;0.80;;
11111;SDS011;5609;49.466;8.468;2024-02-26T13:35:52;2.93;;;1.00;;
11111;SDS011;5609;49.466;8.468;2024-02-26T13:38:19;0.80;;;0.80;;
11111;SDS011;5609;49.466;8.468;2024-02-26T13:40:46;0.50;;;0.50;;
11111;SDS011;5609;49.466;8.468;2024-02-26T13:43:14;0.50;;;0.50;;
11111;SDS011;5609;49.466;8.468;2024-02-26T13:45:42;0.50;;;0.50;;
11111;SDS011;5609;49.466;8.468;2024-02-26T13:48:10;2.00;;;0.60;;
11111;SDS011;5609;49.466;8.468;2024-02-26T13:50:37;0.47;;;0.30;;
11111;SDS011;5609;49.466;8.468;2024-02-26T13:53:04;0.30;;;0.30;;
11111;SDS011;5609;49.466;8.468;2024-02-26T13:55:31;0.60;;;0.60;;
11111;SDS011;5609;49.466;8.468;2024-02-26T13:57:58;1.00;;;0.90;;
11111;SDS011;5609;49.466;8.468;2024-02-26T14:00:26;0.60;;;0.60;;
11111;SDS011;5609;49.466;8.468;2024-02-26T14:02:54;0.80;;;0.50;;
11111;SDS011;5609;49.466;8.468;2024-02-26T14:05:21;1.63;;;0.50;;
11111;SDS011;5609;49.466;8.468;2024-02-26T14:07:48;0.60;;;0.60;;
11111;SDS011;5609;49.466;8.468;2024-02-26T14:10:15;0.97;;;0.50;;
11111;SDS011;5609;49.466;8.468;2024-02-26T14:12:42;1.00;;;0.67;;
11111;SDS011;5609;49.466;8.468;2024-02-26T14:15:09;0.30;;;0.30;;
11111;SDS011;5609;49.466;8.468;2024-02-26T14:17:37;0.50;;;0.50;;
11111;SDS011;5609;49.466;8.468;2024-02-26T14:20:06;0.80;;;0.53;;
11111;SDS011;5609;49.466;8.468;2024-02-26T14:22:34;1.33;;;0.60;;
11111;SDS011;5609;49.466;8.468;2024-02-26T14:25:01;1.53;;;0.80;;
11111;SDS011;5609;49.466;8.468;2024-02-26T14:27:28;2.67;;;1.10;;
11111;SDS011;5609;49.466;8.468;2024-02-26T14:29:54;1.57;;;1.10;;
11111;SDS011;5609;49.466;8.468;2024-02-26T14:32:21;2.47;;;1.37;;
11111;SDS011;5609;49.466;8.468;2024-02-26T14:34:48;1.43;;;1.00;;
11111;SDS011;5609;49.466;8.468;2024-02-26T14:37:17;2.50;;;1.10;;
11111;SDS011;5609;49.466;8.468;2024-02-26T14:39:44;1.20;;;0.80;;
11111;SDS011;5609;49.466;8.468;2024-02-26T14:42:12;1.70;;;0.80;;
11111;SDS011;5609;49.466;8.468;2024-02-26T14:44:42;0.73;;;0.60;;
11111;SDS011;5609;49.466;8.468;2024-02-26T14:47:11;1.30;;;0.60;;
11111;SDS011;5609;49.466;8.468;2024-02-26T14:49:38;0.60;;;0.60;;
11111;SDS011;5609;49.466;8.468;2024-02-26T14:52:05;0.70;;;0.70;;
11111;SDS011;5609;49.466;8.468;2024-02-26T14:54:33;0.93;;;0.73;;
11111;SDS011;5609;49.466;8.468;2024-02-26T14:57:03;0.63;;;0.63;;
11111;SDS011;5609;49.466;8.468;2024-02-26T14:59:31;1.10;;;0.73;;
11111;SDS011;5609;49.466;8.468;2024-02-26T15:01:58;1.57;;;0.90;;
11111;SDS011;5609;49.466;8.468;2024-02-26T15:04:25;1.47;;;0.77;;
11111;SDS011;5609;49.466;8.468;2024-02-26T15:06:52;0.97;;;0.70;;
11111;SDS011;5609;49.466;8.468;2024-02-26T15:09:19;0.80;;;0.80;;